Time;durP1;ratioP1;P1;durP2;ratioP2;P2;SDS_P1;SDS_P2;PMS_P1;PMS_P2;Temp;Humidity;BMP_temperature;BMP_pressure;BME280_temperature;BME280_humidity;BME280_pressure;Samples;Min_cycle;Max_cycle;Signal;HPM_P1;HPM_P2
2023/12/19 00:01:16;;;;;;;35.10;24.80;;;;;;;;;;5037263;28;20123;-61
2023/12/19 00:03:42;;;;;;;38.30;24.10;;;;;;;;;;5035793;28;20041;-61
2023/12/19 00:06:08;;;;;;;31.88;22.75;;;;;;;;;;5031911;28;20444;-61
2023/12/19 00:08:34;;;;;;;30.92;23.45;;;;;;;;;;5038476;28;20048;-61
2023/12/19 00:11:00;;;;;;;28.02;21.27;;;;;;;;;;5031286;28;20041;-61
2023/12/19 00:13:26;;;;;;;32.97;22.88;;;;;;;;;;5031063;28;20076;-61
2023/12/19 00:15:52;;;;;;;29.17;21.67;;;;;;;;;;5033644;28;20049;-61
2023/12/19 00:18:18;;;;;;;31.63;21.98;;;;;;;;;;5033259;28;20029;-61
2023/12/19 00:20:44;;;;;;;25.38;20.33;;;;;;;;;;5031415;28;20469;-60
2023/12/19 00:23:10;;;;;;;27.30;20.52;;;;;;;;;;5027690;28;20135;-61
2023/12/19 00:25:36;;;;;;;24.85;19.75;;;;;;;;;;5026533;28;20064;-61
2023/12/19 00:28:02;;;;;;;23.40;19.48;;;;;;;;;;5030271;28;20048;-61
2023/12/19 00:30:28;;;;;;;27.80;21.23;;;;;;;;;;5037901;28;20029;-60
2023/12/19 00:32:55;;;;;;;27.83;21.13;;;;;;;;;;5036993;28;20076;-61
2023/12/19 00:35:21;;;;;;;28.33;22.23;;;;;;;;;;5041221;28;20053;-61
2023/12/19 00:37:47;;;;;;;26.80;20.85;;;;;;;;;;5038713;28;20053;-61
2023/12/19 00:40:13;;;;;;;25.48;20.20;;;;;;;;;;5040622;28;20040;-61
2023/12/19 00:42:41;;;;;;;24.05;19.45;;;;;;;;;;5041599;28;20072;-61
2023/12/19 00:45:07;;;;;;;29.23;21.35;;;;;;;;;;5039817;28;20719;-61
2023/12/19 00:47:33;;;;;;;29.05;20.80;;;;;;;;;;5039459;28;20048;-61
2023/12/19 00:49:59;;;;;;;27.38;22.20;;;;;;;;;;5041865;28;20119;-61
2023/12/19 00:52:27;;;;;;;27.02;20.58;;;;;;;;;;5036455;28;20112;-60
2023/12/19 00:54:53;;;;;;;27.98;21.00;;;;;;;;;;5040234;28;20482;-60
2023/12/19 00:57:19;;;;;;;28.08;20.25;;;;;;;;;;5043915;28;20044;-60
2023/12/19 00:59:45;;;;;;;28.13;20.95;;;;;;;;;;5042145;28;20378;-60
2023/12/19 01:02:11;;;;;;;26.33;20.58;;;;;;;;;;5041460;28;20044;-60
2023/12/19 01:04:37;;;;;;;31.20;22.48;;;;;;;;;;5038061;28;20041;-61
2023/12/19 01:07:03;;;;;;;28.15;19.50;;;;;;;;;;5041819;28;20718;-61
2023/12/19 01:09:29;;;;;;;26.58;19.58;;;;;;;;;;5039825;28;20429;-61
2023/12/19 01:11:55;;;;;;;25.48;19.63;;;;;;;;;;5044089;28;20478;-61
2023/12/19 01:14:21;;;;;;;25.67;19.75;;;;;;;;;;5044097;28;20091;-61
2023/12/19 01:16:47;;;;;;;26.00;19.17;;;;;;;;;;5037204;28;20092;-61
2023/12/19 01:19:13;;;;;;;23.80;18.95;;;;;;;;;;5032992;28;20037;-61
2023/12/19 01:21:39;;;;;;;24.20;19.75;;;;;;;;;;5039190;28;20045;-60
2023/12/19 01:24:05;;;;;;;24.60;19.50;;;;;;;;;;5035391;28;20049;-60
2023/12/19 01:26:34;;;;;;;23.38;18.55;;;;;;;;;;5036844;28;20053;-60
2023/12/19 01:29:02;;;;;;;24.00;18.73;;;;;;;;;;5042513;28;20392;-60
2023/12/19 01:31:28;;;;;;;25.30;18.83;;;;;;;;;;5040613;28;20049;-60
2023/12/19 01:33:55;;;;;;;21.95;17.27;;;;;;;;;;5038271;28;20037;-60
2023/12/19 01:36:21;;;;;;;24.88;19.73;;;;;;;;;;5038990;28;20041;-61
2023/12/19 01:38:47;;;;;;;23.80;19.20;;;;;;;;;;5041893;28;20052;-60
2023/12/19 01:41:13;;;;;;;23.85;17.73;;;;;;;;;;5037309;28;20524;-61
2023/12/19 01:43:39;;;;;;;21.08;17.02;;;;;;;;;;5038140;28;20049;-60
2023/12/19 01:46:05;;;;;;;20.50;16.67;;;;;;;;;;5039423;28;20130;-60
2023/12/19 01:48:31;;;;;;;23.67;17.90;;;;;;;;;;5035083;28;20144;-60
2023/12/19 01:50:58;;;;;;;21.90;17.27;;;;;;;;;;5039826;28;20144;-60
2023/12/19 01:53:24;;;;;;;19.73;16.27;;;;;;;;;;5039108;28;20102;-60
2023/12/19 01:55:52;;;;;;;21.20;17.40;;;;;;;;;;5040248;28;20044;-61
2023/12/19 01:58:18;;;;;;;19.95;15.68;;;;;;;;;;5032782;28;20052;-61
2023/12/19 02:00:44;;;;;;;18.98;16.52;;;;;;;;;;5035366;28;20024;-61
2023/12/19 02:03:10;;;;;;;21.55;15.95;;;;;;;;;;5041568;28;20051;-61
2023/12/19 02:05:39;;;;;;;17.23;14.80;;;;;;;;;;5042770;28;20049;-61
2023/12/19 02:08:06;;;;;;;16.58;14.38;;;;;;;;;;5045267;28;20503;-61
2023/12/19 02:10:32;;;;;;;17.10;14.57;;;;;;;;;;5041892;28;20083;-61
2023/12/19 02:12:58;;;;;;;17.30;13.18;;;;;;;;;;5039356;28;20053;-61
2023/12/19 02:15:24;;;;;;;16.60;13.00;;;;;;;;;;5042306;28;20687;-62
2023/12/19 02:17:50;;;;;;;16.33;12.85;;;;;;;;;;5043419;28;20429;-62
2023/12/19 02:20:16;;;;;;;14.80;12.88;;;;;;;;;;5037757;28;20101;-61
2023/12/19 02:22:42;;;;;;;14.18;12.13;;;;;;;;;;5036452;28;20037;-62
2023/12/19 02:25:08;;;;;;;17.17;13.23;;;;;;;;;;5034293;28;20098;-61
2023/12/19 02:27:39;;;;;;;15.05;13.27;;;;;;;;;;5036194;28;20048;-61
2023/12/19 02:30:06;;;;;;;16.25;13.63;;;;;;;;;;5037046;28;20649;-60
2023/12/19 02:32:35;;;;;;;17.27;14.48;;;;;;;;;;5033326;28;20049;-61
2023/12/19 02:35:01;;;;;;;14.77;12.85;;;;;;;;;;5035653;28;20114;-61
2023/12/19 02:37:27;;;;;;;15.35;12.80;;;;;;;;;;5031721;28;20505;-62
2023/12/19 02:39:53;;;;;;;16.48;13.05;;;;;;;;;;5034439;28;20661;-61
2023/12/19 02:42:19;;;;;;;16.50;14.20;;;;;;;;;;5035242;28;20049;-61
2023/12/19 02:44:45;;;;;;;15.52;12.35;;;;;;;;;;5036140;28;20507;-61
2023/12/19 02:47:11;;;;;;;16.13;12.90;;;;;;;;;;5036226;28;20045;-61
2023/12/19 02:49:37;;;;;;;14.77;12.82;;;;;;;;;;5036769;28;20065;-62
2023/12/19 02:52:03;;;;;;;17.58;13.40;;;;;;;;;;5039590;28;20073;-61
2023/12/19 02:54:29;;;;;;;14.55;12.30;;;;;;;;;;5033790;28;20525;-62
2023/12/19 02:56:55;;;;;;;15.85;12.55;;;;;;;;;;5036151;28;20064;-61
2023/12/19 02:59:21;;;;;;;15.40;11.85;;;;;;;;;;5031836;28;20203;-61
2023/12/19 03:01:47;;;;;;;13.20;11.77;;;;;;;;;;5034940;28;20048;-62
2023/12/19 03:04:13;;;;;;;13.52;11.73;;;;;;;;;;5042032;28;20052;-61
2023/12/19 03:06:39;;;;;;;14.07;12.25;;;;;;;;;;5033115;28;21654;-61
2023/12/19 03:09:06;;;;;;;15.73;12.80;;;;;;;;;;5042147;28;20067;-61
2023/12/19 03:11:32;;;;;;;13.98;12.15;;;;;;;;;;5041450;28;20076;-61
2023/12/19 03:13:58;;;;;;;14.52;12.18;;;;;;;;;;5043896;28;20103;-61
2023/12/19 03:16:24;;;;;;;14.63;12.80;;;;;;;;;;5041066;28;20405;-61
2023/12/19 03:18:50;;;;;;;15.60;12.48;;;;;;;;;;5041031;28;20044;-62
2023/12/19 03:21:15;;;;;;;12.43;11.07;;;;;;;;;;5042977;28;20047;-62
2023/12/19 03:23:42;;;;;;;14.77;12.40;;;;;;;;;;5040162;28;20063;-61
2023/12/19 03:26:08;;;;;;;14.80;11.45;;;;;;;;;;5042198;28;20409;-61
2023/12/19 03:28:35;;;;;;;14.68;12.35;;;;;;;;;;5040988;28;20045;-62
2023/12/19 03:31:02;;;;;;;13.98;11.82;;;;;;;;;;5037671;28;20652;-61
2023/12/19 03:33:28;;;;;;;13.40;11.98;;;;;;;;;;5039216;28;20059;-61
2023/12/19 03:35:53;;;;;;;15.50;13.13;;;;;;;;;;5039098;28;20513;-61
2023/12/19 03:38:20;;;;;;;15.98;12.93;;;;;;;;;;5033871;28;20064;-61
2023/12/19 03:40:46;;;;;;;14.40;12.65;;;;;;;;;;5032226;28;20099;-62
2023/12/19 03:43:12;;;;;;;13.15;11.75;;;;;;;;;;5031879;28;20064;-62
2023/12/19 03:45:38;;;;;;;16.65;12.43;;;;;;;;;;5033214;28;20041;-61
2023/12/19 03:48:04;;;;;;;13.07;11.75;;;;;;;;;;5032718;28;20566;-61
2023/12/19 03:50:30;;;;;;;13.63;11.73;;;;;;;;;;5035267;28;20088;-62
2023/12/19 03:52:56;;;;;;;12.48;11.15;;;;;;;;;;5033092;28;20076;-61
2023/12/19 03:55:22;;;;;;;14.25;12.02;;;;;;;;;;5030240;28;20041;-61
2023/12/19 03:57:48;;;;;;;10.65;9.60;;;;;;;;;;5033120;28;20041;-62
2023/12/19 04:00:14;;;;;;;11.93;10.25;;;;;;;;;;5031409;28;20049;-61
2023/12/19 04:02:40;;;;;;;11.55;10.23;;;;;;;;;;5034252;28;20056;-61
2023/12/19 04:05:06;;;;;;;10.65;9.55;;;;;;;;;;5036230;28;20045;-61
2023/12/19 04:07:32;;;;;;;11.23;9.80;;;;;;;;;;5033717;28;20044;-61
2023/12/19 04:09:58;;;;;;;10.70;9.60;;;;;;;;;;5035585;28;20506;-61
2023/12/19 04:12:24;;;;;;;10.07;8.80;;;;;;;;;;5035298;28;20052;-61
2023/12/19 04:14:50;;;;;;;9.63;8.50;;;;;;;;;;5034014;28;20038;-61
2023/12/19 04:17:16;;;;;;;9.73;8.73;;;;;;;;;;5034424;28;20782;-61
2023/12/19 04:19:42;;;;;;;9.77;8.52;;;;;;;;;;5035463;28;20041;-61
2023/12/19 04:22:08;;;;;;;8.40;7.60;;;;;;;;;;5037829;28;20831;-62
2023/12/19 04:24:34;;;;;;;9.25;8.35;;;;;;;;;;5039987;28;20037;-62
2023/12/19 04:27:00;;;;;;;8.32;7.47;;;;;;;;;;5040559;28;20051;-61
2023/12/19 04:29:26;;;;;;;7.85;7.03;;;;;;;;;;5040578;28;20455;-61
2023/12/19 04:31:52;;;;;;;7.53;6.82;;;;;;;;;;5036041;28;20033;-62
2023/12/19 04:34:18;;;;;;;6.80;6.10;;;;;;;;;;5041068;28;20125;-62
2023/12/19 04:36:44;;;;;;;7.40;6.70;;;;;;;;;;5039326;28;20548;-61
2023/12/19 04:39:10;;;;;;;5.82;5.32;;;;;;;;;;5034932;28;20045;-61
2023/12/19 04:41:37;;;;;;;6.38;5.55;;;;;;;;;;5035181;28;20041;-61
2023/12/19 04:44:05;;;;;;;6.35;5.85;;;;;;;;;;5033105;28;20041;-62
2023/12/19 04:46:31;;;;;;;6.72;5.97;;;;;;;;;;5038790;28;20040;-62
2023/12/19 04:48:57;;;;;;;6.97;6.28;;;;;;;;;;5038173;28;20057;-61
2023/12/19 04:51:23;;;;;;;6.40;5.80;;;;;;;;;;5028948;28;20056;-61
2023/12/19 04:53:49;;;;;;;6.88;6.18;;;;;;;;;;5034960;28;20037;-61
2023/12/19 04:56:16;;;;;;;5.85;5.32;;;;;;;;;;5037710;28;20068;-62
2023/12/19 04:58:43;;;;;;;5.63;5.13;;;;;;;;;;5033748;28;20044;-62
2023/12/19 05:01:09;;;;;;;6.57;5.40;;;;;;;;;;5034552;28;20069;-61
2023/12/19 05:03:37;;;;;;;5.65;4.97;;;;;;;;;;5037872;28;20053;-61
2023/12/19 05:06:04;;;;;;;5.78;5.28;;;;;;;;;;5035286;28;20651;-61
2023/12/19 05:08:30;;;;;;;5.07;4.68;;;;;;;;;;5037814;28;20688;-62
2023/12/19 05:10:56;;;;;;;5.07;4.57;;;;;;;;;;5038493;28;20060;-62
2023/12/19 05:13:22;;;;;;;6.25;5.53;;;;;;;;;;5036407;28;20455;-62
2023/12/19 05:15:50;;;;;;;5.53;5.03;;;;;;;;;;5038920;28;20041;-62
2023/12/19 05:18:18;;;;;;;5.18;4.75;;;;;;;;;;5030984;28;20124;-62
2023/12/19 05:20:44;;;;;;;5.13;4.57;;;;;;;;;;5034794;28;20128;-62
2023/12/19 05:23:10;;;;;;;5.03;4.63;;;;;;;;;;5035133;28;20532;-62
2023/12/19 05:25:36;;;;;;;4.88;4.47;;;;;;;;;;5037711;28;20041;-61
2023/12/19 05:28:02;;;;;;;4.35;3.95;;;;;;;;;;5042344;28;20045;-61
2023/12/19 05:30:28;;;;;;;4.07;3.78;;;;;;;;;;5041255;28;20123;-61
2023/12/19 05:32:54;;;;;;;4.18;3.88;;;;;;;;;;5040818;28;20568;-62
2023/12/19 05:35:21;;;;;;;4.75;4.35;;;;;;;;;;5043006;28;20041;-62
2023/12/19 05:37:47;;;;;;;4.60;4.20;;;;;;;;;;5072553;28;20058;-61
2023/12/19 05:40:13;;;;;;;4.40;4.00;;;;;;;;;;5036384;28;20047;-62
2023/12/19 05:42:39;;;;;;;5.75;5.25;;;;;;;;;;5033970;28;20572;-61
2023/12/19 05:45:05;;;;;;;4.88;4.47;;;;;;;;;;5040245;28;20041;-62
2023/12/19 05:47:32;;;;;;;4.53;4.13;;;;;;;;;;5039096;28;20556;-62
2023/12/19 05:49:58;;;;;;;4.47;4.07;;;;;;;;;;5038970;28;20406;-62
2023/12/19 05:52:24;;;;;;;5.10;4.60;;;;;;;;;;5034876;28;20049;-61
2023/12/19 05:54:50;;;;;;;4.13;3.78;;;;;;;;;;5038448;28;20613;-61
2023/12/19 05:57:16;;;;;;;4.13;3.78;;;;;;;;;;5041371;28;20076;-61
2023/12/19 05:59:42;;;;;;;4.85;4.35;;;;;;;;;;5035875;28;20041;-61
2023/12/19 06:02:08;;;;;;;4.68;4.28;;;;;;;;;;5037483;28;20037;-61
2023/12/19 06:04:35;;;;;;;4.68;4.25;;;;;;;;;;5041487;28;20052;-62
2023/12/19 06:07:00;;;;;;;4.75;4.35;;;;;;;;;;5038427;28;20029;-62
2023/12/19 06:09:27;;;;;;;4.40;4.00;;;;;;;;;;5037096;28;20083;-62
2023/12/19 06:11:53;;;;;;;4.05;3.63;;;;;;;;;;5036683;28;20056;-62
2023/12/19 06:14:19;;;;;;;4.53;4.13;;;;;;;;;;5040879;28;20041;-61
2023/12/19 06:16:46;;;;;;;4.07;3.67;;;;;;;;;;5030610;28;20124;-61
2023/12/19 06:19:12;;;;;;;4.20;3.90;;;;;;;;;;5072971;28;20111;-61
2023/12/19 06:21:39;;;;;;;4.43;4.07;;;;;;;;;;5041039;28;20102;-61
2023/12/19 06:24:05;;;;;;;4.97;4.53;;;;;;;;;;5040176;28;20037;-61
2023/12/19 06:26:31;;;;;;;4.38;3.97;;;;;;;;;;5042711;28;20044;-61
2023/12/19 06:28:58;;;;;;;4.70;4.30;;;;;;;;;;5041838;28;20879;-61
2023/12/19 06:31:24;;;;;;;4.65;4.25;;;;;;;;;;5042962;28;20151;-61
2023/12/19 06:33:50;;;;;;;4.60;4.20;;;;;;;;;;5040769;28;20128;-61
2023/12/19 06:36:31;;;;;;;4.50;4.20;;;;;;;;;;5036313;28;20041;-62
2023/12/19 06:38:57;;;;;;;4.93;4.43;;;;;;;;;;5039354;28;20045;-62
2023/12/19 06:41:23;;;;;;;5.60;5.10;;;;;;;;;;5035727;28;20318;-62
2023/12/19 06:43:49;;;;;;;5.68;5.18;;;;;;;;;;5038682;28;20039;-62
2023/12/19 06:46:16;;;;;;;5.38;4.85;;;;;;;;;;5037969;28;20041;-62
2023/12/19 06:48:42;;;;;;;5.25;4.82;;;;;;;;;;5035088;28;20540;-61
2023/12/19 06:51:08;;;;;;;5.18;4.78;;;;;;;;;;5037948;28;20046;-61
2023/12/19 06:53:34;;;;;;;6.30;5.70;;;;;;;;;;5035742;28;20428;-61
2023/12/19 06:56:00;;;;;;;5.88;5.38;;;;;;;;;;5037227;28;20049;-61
2023/12/19 06:58:26;;;;;;;5.10;4.63;;;;;;;;;;5034693;28;20410;-61
2023/12/19 07:00:52;;;;;;;5.53;5.00;;;;;;;;;;5033876;28;20037;-61
2023/12/19 07:03:18;;;;;;;6.18;5.68;;;;;;;;;;5032137;28;20119;-61
2023/12/19 07:05:44;;;;;;;6.00;5.50;;;;;;;;;;5032173;28;20048;-61
2023/12/19 07:08:10;;;;;;;6.05;5.45;;;;;;;;;;5033514;28;20052;-61
2023/12/19 07:10:36;;;;;;;5.45;4.95;;;;;;;;;;5034016;28;20037;-61
2023/12/19 07:13:02;;;;;;;4.85;4.45;;;;;;;;;;5038534;28;20633;-61
2023/12/19 07:15:28;;;;;;;5.43;4.93;;;;;;;;;;5036819;28;20045;-61
2023/12/19 07:17:54;;;;;;;5.70;5.20;;;;;;;;;;5038648;28;20041;-61
2023/12/19 07:20:20;;;;;;;5.43;4.93;;;;;;;;;;5030890;28;20521;-62
2023/12/19 07:22:46;;;;;;;6.00;5.50;;;;;;;;;;5040512;28;20052;-62
2023/12/19 07:25:13;;;;;;;5.43;5.03;;;;;;;;;;5041002;28;20051;-62
2023/12/19 07:27:39;;;;;;;6.90;6.25;;;;;;;;;;5035873;28;20056;-61
2023/12/19 07:30:05;;;;;;;6.85;6.25;;;;;;;;;;5042066;28;20084;-62
2023/12/19 07:32:31;;;;;;;7.63;5.50;;;;;;;;;;5040984;28;20076;-62
2023/12/19 07:34:57;;;;;;;5.57;5.00;;;;;;;;;;5041605;28;20076;-63
2023/12/19 07:37:23;;;;;;;5.07;4.65;;;;;;;;;;5038929;28;20119;-63
2023/12/19 07:39:50;;;;;;;4.60;4.20;;;;;;;;;;5039131;28;20079;-63
2023/12/19 07:42:17;;;;;;;5.10;4.70;;;;;;;;;;5035514;28;20555;-60
2023/12/19 07:44:43;;;;;;;4.72;4.32;;;;;;;;;;5032690;28;20099;-62
2023/12/19 07:47:09;;;;;;;4.40;4.00;;;;;;;;;;5040432;28;20045;-63
2023/12/19 07:49:35;;;;;;;3.70;3.40;;;;;;;;;;5045497;28;20049;-63
2023/12/19 07:52:03;;;;;;;3.63;3.33;;;;;;;;;;5040215;28;20436;-63
2023/12/19 07:54:30;;;;;;;3.75;3.45;;;;;;;;;;5038874;28;20049;-63
2023/12/19 07:56:56;;;;;;;3.80;3.50;;;;;;;;;;5043248;28;20494;-63
2023/12/19 07:59:22;;;;;;;3.60;3.30;;;;;;;;;;5045381;28;20075;-63
2023/12/19 08:01:48;;;;;;;4.07;3.78;;;;;;;;;;5043387;28;20053;-63
2023/12/19 08:04:14;;;;;;;3.30;3.00;;;;;;;;;;5045702;28;20079;-63
2023/12/19 08:06:41;;;;;;;2.95;2.75;;;;;;;;;;5046083;28;20045;-63
2023/12/19 08:09:10;;;;;;;4.43;4.03;;;;;;;;;;5044918;28;20528;-63
2023/12/19 08:11:36;;;;;;;3.78;3.47;;;;;;;;;;5043719;28;20045;-62
2023/12/19 08:14:02;;;;;;;3.90;3.60;;;;;;;;;;5039794;28;20116;-63
2023/12/19 08:16:28;;;;;;;4.10;3.63;;;;;;;;;;5035019;28;20120;-62
2023/12/19 08:18:54;;;;;;;5.13;4.63;;;;;;;;;;5045135;28;20090;-62
2023/12/19 08:21:20;;;;;;;4.40;4.00;;;;;;;;;;5044622;28;20059;-63
2023/12/19 08:23:48;;;;;;;5.60;4.57;;;;;;;;;;5039280;28;20155;-62
2023/12/19 08:26:14;;;;;;;4.07;3.78;;;;;;;;;;5043753;28;20053;-62
2023/12/19 08:28:40;;;;;;;4.53;4.13;;;;;;;;;;5039756;28;20071;-62
2023/12/19 08:31:06;;;;;;;3.20;2.92;;;;;;;;;;5037832;28;20045;-63
2023/12/19 08:33:32;;;;;;;3.35;3.05;;;;;;;;;;5039885;28;20043;-63
2023/12/19 08:35:58;;;;;;;3.80;3.33;;;;;;;;;;5035803;28;20045;-62
2023/12/19 08:38:24;;;;;;;5.15;4.30;;;;;;;;;;5039070;28;20082;-62
2023/12/19 08:40:50;;;;;;;4.85;4.00;;;;;;;;;;5042280;28;20045;-62
2023/12/19 08:43:19;;;;;;;4.88;4.47;;;;;;;;;;5040880;28;20033;-62
2023/12/19 08:45:46;;;;;;;4.68;4.28;;;;;;;;;;5036225;28;20119;-62
2023/12/19 08:48:12;;;;;;;4.65;4.25;;;;;;;;;;5033000;28;20065;-62
2023/12/19 08:50:38;;;;;;;5.15;4.65;;;;;;;;;;5034579;28;20103;-63
2023/12/19 08:53:05;;;;;;;5.40;4.90;;;;;;;;;;5043427;28;20076;-63
2023/12/19 08:55:31;;;;;;;5.32;4.93;;;;;;;;;;5034978;28;20676;-63
2023/12/19 08:57:57;;;;;;;6.35;5.85;;;;;;;;;;5034811;28;20529;-62
2023/12/19 09:00:23;;;;;;;6.57;5.97;;;;;;;;;;5036323;28;20119;-62
2023/12/19 09:02:49;;;;;;;5.82;5.32;;;;;;;;;;5034316;28;20548;-62
2023/12/19 09:05:16;;;;;;;5.68;5.18;;;;;;;;;;5043312;28;20053;-62
2023/12/19 09:07:43;;;;;;;5.35;4.85;;;;;;;;;;5044037;28;20045;-62
2023/12/19 09:10:11;;;;;;;5.90;5.40;;;;;;;;;;5046047;28;20041;-62
2023/12/19 09:12:37;;;;;;;5.50;5.00;;;;;;;;;;5047226;28;20053;-59
2023/12/19 09:15:05;;;;;;;5.75;5.15;;;;;;;;;;5049265;28;20477;-58
2023/12/19 09:17:31;;;;;;;5.78;5.18;;;;;;;;;;5047874;28;20103;-61
2023/12/19 09:19:58;;;;;;;5.65;5.15;;;;;;;;;;5047339;28;20041;-64
2023/12/19 09:22:25;;;;;;;5.90;5.40;;;;;;;;;;5045888;28;20049;-61
2023/12/19 09:24:51;;;;;;;6.97;6.28;;;;;;;;;;5046735;28;20140;-61
2023/12/19 09:27:17;;;;;;;6.25;5.75;;;;;;;;;;5046150;28;20044;-61
2023/12/19 09:29:43;;;;;;;6.60;5.97;;;;;;;;;;5049004;28;20386;-62
2023/12/19 09:32:09;;;;;;;6.95;5.75;;;;;;;;;;5047761;28;20405;-62
2023/12/19 09:34:38;;;;;;;5.50;5.00;;;;;;;;;;5048614;28;20378;-62
2023/12/19 09:37:05;;;;;;;5.72;5.22;;;;;;;;;;5048493;28;20044;-62
2023/12/19 09:39:31;;;;;;;5.88;5.38;;;;;;;;;;5047960;28;20542;-62
2023/12/19 09:41:58;;;;;;;5.57;5.07;;;;;;;;;;5044311;28;20051;-61
2023/12/19 09:44:24;;;;;;;6.10;5.50;;;;;;;;;;5040257;28;20040;-62
2023/12/19 09:46:50;;;;;;;5.32;4.93;;;;;;;;;;5044282;28;20037;-62
2023/12/19 09:49:21;;;;;;;4.15;3.75;;;;;;;;;;5038149;28;20069;-62
2023/12/19 09:51:51;;;;;;;4.97;4.57;;;;;;;;;;5043682;28;20625;-62
2023/12/19 09:54:18;;;;;;;4.65;4.25;;;;;;;;;;5071344;28;20056;-61
2023/12/19 09:56:45;;;;;;;4.22;3.78;;;;;;;;;;5047097;28;20033;-62
2023/12/19 09:59:11;;;;;;;4.05;3.75;;;;;;;;;;5044702;28;20082;-62
2023/12/19 10:01:38;;;;;;;3.90;3.60;;;;;;;;;;5045655;28;20140;-62
2023/12/19 10:04:08;;;;;;;3.70;3.40;;;;;;;;;;5042609;28;20113;-62
2023/12/19 10:06:34;;;;;;;3.92;3.53;;;;;;;;;;5066546;28;20042;-61
2023/12/19 10:09:01;;;;;;;3.65;3.35;;;;;;;;;;5045566;28;20167;-62
2023/12/19 10:11:27;;;;;;;4.20;3.80;;;;;;;;;;5040374;28;20037;-62
2023/12/19 10:14:08;;;;;;;3.22;2.95;;;;;;;;;;5046369;28;20041;-61
2023/12/19 10:16:37;;;;;;;3.60;3.30;;;;;;;;;;5046883;28;20519;-61
2023/12/19 10:19:03;;;;;;;4.32;3.92;;;;;;;;;;5047083;28;20340;-61
2023/12/19 10:21:31;;;;;;;3.53;3.30;;;;;;;;;;5046604;28;20488;-62
2023/12/19 10:24:07;;;;;;;3.80;3.50;;;;;;;;;;5047435;28;20037;-62
2023/12/19 10:26:33;;;;;;;3.58;3.28;;;;;;;;;;5047177;28;20123;-62
2023/12/19 10:28:59;;;;;;;4.05;3.75;;;;;;;;;;5046217;28;20042;-62
2023/12/19 10:31:25;;;;;;;4.07;3.78;;;;;;;;;;5046903;28;20720;-62
2023/12/19 10:33:54;;;;;;;4.10;3.80;;;;;;;;;;5047750;28;20048;-61
2023/12/19 10:36:30;;;;;;;3.42;3.17;;;;;;;;;;5042604;28;20049;-62
2023/12/19 10:38:57;;;;;;;3.10;2.90;;;;;;;;;;5047493;28;20512;-62
2023/12/19 10:41:23;;;;;;;4.15;3.85;;;;;;;;;;5046522;28;20041;-62
2023/12/19 10:43:50;;;;;;;3.42;3.13;;;;;;;;;;5036709;28;20053;-61
2023/12/19 10:46:18;;;;;;;3.20;3.00;;;;;;;;;;5044961;28;20037;-62
2023/12/19 10:48:44;;;;;;;3.13;2.92;;;;;;;;;;5045405;28;20052;-62
2023/12/19 10:51:12;;;;;;;3.95;3.65;;;;;;;;;;5046685;28;20060;-61
2023/12/19 10:53:38;;;;;;;4.07;3.75;;;;;;;;;;5043694;28;20052;-62
2023/12/19 10:56:08;;;;;;;4.53;4.22;;;;;;;;;;5042498;28;20146;-62
2023/12/19 10:58:36;;;;;;;3.92;3.53;;;;;;;;;;5043719;28;20047;-62
2023/12/19 11:01:03;;;;;;;4.15;3.85;;;;;;;;;;5043228;28;20044;-62
2023/12/19 11:03:42;;;;;;;3.67;3.38;;;;;;;;;;5044834;28;20033;-61
2023/12/19 11:06:10;;;;;;;3.67;3.38;;;;;;;;;;5042496;28;20127;-61
2023/12/19 11:08:40;;;;;;;3.72;3.42;;;;;;;;;;5040206;28;20054;-62
2023/12/19 11:11:06;;;;;;;3.63;3.33;;;;;;;;;;5048400;28;20131;-61
2023/12/19 11:13:36;;;;;;;4.00;3.70;;;;;;;;;;5047579;28;20120;-61
2023/12/19 11:16:08;;;;;;;3.88;3.58;;;;;;;;;;5045892;28;20037;-61
2023/12/19 11:18:34;;;;;;;;;;;;;;;;;;5048075;28;20051;-61
2023/12/19 11:21:06;;;;;;;4.50;4.10;;;;;;;;;;5040420;28;19920;-61
2023/12/19 11:23:58;;;;;;;4.63;4.22;;;;;;;;;;5044535;28;20144;-62
2023/12/19 11:26:43;;;;;;;4.53;4.20;;;;;;;;;;5039967;28;20049;-61
2023/12/19 11:29:29;;;;;;;4.35;4.05;;;;;;;;;;5042699;28;20044;-61
2023/12/19 11:31:55;;;;;;;4.50;4.20;;;;;;;;;;5038827;28;20088;-61
2023/12/19 11:34:22;;;;;;;4.75;4.22;;;;;;;;;;5035630;28;20567;-61
2023/12/19 11:36:48;;;;;;;4.40;4.10;;;;;;;;;;5040663;28;20106;-61
2023/12/19 11:39:26;;;;;;;5.07;4.65;;;;;;;;;;5040329;28;20040;-61
2023/12/19 11:41:52;;;;;;;4.90;4.50;;;;;;;;;;5037604;28;20032;-61
2023/12/19 11:44:34;;;;;;;4.70;4.40;;;;;;;;;;5043246;28;20037;-61
2023/12/19 11:47:16;;;;;;;4.43;4.07;;;;;;;;;;5034452;28;20033;-61
2023/12/19 11:49:42;;;;;;;4.38;4.07;;;;;;;;;;5043092;28;20172;-61
2023/12/19 11:52:08;;;;;;;5.28;3.70;;;;;;;;;;5037459;28;20060;-60
2023/12/19 11:54:34;;;;;;;4.28;3.97;;;;;;;;;;5041791;28;20041;-60
2023/12/19 11:57:01;;;;;;;4.90;4.50;;;;;;;;;;5045876;28;20033;-61
2023/12/19 11:59:47;;;;;;;4.78;4.45;;;;;;;;;;5040085;28;20071;-61
2023/12/19 12:02:13;;;;;;;5.10;4.70;;;;;;;;;;5038619;28;20116;-61
2023/12/19 12:04:39;;;;;;;4.63;4.32;;;;;;;;;;5043126;28;20040;-61
2023/12/19 12:07:05;;;;;;;3.70;3.40;;;;;;;;;;5036048;28;20740;-61
2023/12/19 12:09:31;;;;;;;4.28;3.97;;;;;;;;;;5034821;28;20046;-61
2023/12/19 12:11:57;;;;;;;4.15;3.85;;;;;;;;;;5044359;28;20513;-61
2023/12/19 12:14:24;;;;;;;4.47;4.07;;;;;;;;;;5044037;28;20032;-61
2023/12/19 12:16:51;;;;;;;3.95;3.65;;;;;;;;;;5045115;28;20508;-62
2023/12/19 12:19:18;;;;;;;5.20;3.83;;;;;;;;;;5045202;28;20442;-61
2023/12/19 12:21:49;;;;;;;4.63;4.22;;;;;;;;;;5041503;28;20045;-61
2023/12/19 12:24:20;;;;;;;3.72;3.47;;;;;;;;;;5046384;28;20055;-60
2023/12/19 12:26:46;;;;;;;3.63;3.35;;;;;;;;;;5047505;28;20509;-60
2023/12/19 12:29:12;;;;;;;4.53;4.13;;;;;;;;;;5049826;28;20049;-60
2023/12/19 12:31:39;;;;;;;4.03;3.72;;;;;;;;;;5049825;28;20444;-60
2023/12/19 12:34:05;;;;;;;3.85;3.55;;;;;;;;;;5047320;28;20144;-60
2023/12/19 12:36:31;;;;;;;4.45;4.05;;;;;;;;;;5043217;28;20424;-60
2023/12/19 12:38:57;;;;;;;3.30;3.10;;;;;;;;;;5047525;28;20431;-61
2023/12/19 12:41:23;;;;;;;3.60;3.30;;;;;;;;;;5036727;28;20049;-61
2023/12/19 12:43:54;;;;;;;3.45;2.95;;;;;;;;;;5045739;28;20072;-61
2023/12/19 12:46:24;;;;;;;3.90;3.60;;;;;;;;;;5048803;28;20045;-61
2023/12/19 12:48:53;;;;;;;3.95;3.65;;;;;;;;;;5044027;28;20060;-60
2023/12/19 12:51:22;;;;;;;3.80;3.53;;;;;;;;;;5049695;28;20033;-60
2023/12/19 12:53:59;;;;;;;3.78;3.45;;;;;;;;;;5048102;28;20116;-60
2023/12/19 12:56:29;;;;;;;2.90;2.70;;;;;;;;;;5049168;28;20041;-61
2023/12/19 12:59:03;;;;;;;2.90;2.70;;;;;;;;;;5049699;28;20045;-61
2023/12/19 13:01:29;;;;;;;2.75;2.53;;;;;;;;;;5043139;28;20116;-61
2023/12/19 13:03:57;;;;;;;2.78;2.58;;;;;;;;;;5048162;28;20047;-61
2023/12/19 13:06:23;;;;;;;2.55;2.35;;;;;;;;;;5046340;28;20053;-61
2023/12/19 13:08:49;;;;;;;2.80;2.60;;;;;;;;;;5043694;28;20455;-61
2023/12/19 13:11:16;;;;;;;3.10;2.90;;;;;;;;;;5045723;28;20037;-61
2023/12/19 13:13:43;;;;;;;3.40;3.10;;;;;;;;;;5047379;28;20103;-61
2023/12/19 13:16:09;;;;;;;3.08;2.72;;;;;;;;;;5048419;28;20467;-61
2023/12/19 13:18:35;;;;;;;2.83;2.63;;;;;;;;;;5043079;28;20056;-62
2023/12/19 13:21:02;;;;;;;2.50;2.30;;;;;;;;;;5047692;28;20051;-60
2023/12/19 13:23:28;;;;;;;2.53;2.30;;;;;;;;;;5044533;28;20048;-61
2023/12/19 13:25:54;;;;;;;2.70;2.50;;;;;;;;;;5048162;28;20075;-62
2023/12/19 13:28:20;;;;;;;2.83;2.38;;;;;;;;;;5046015;28;20033;-62
2023/12/19 13:30:46;;;;;;;2.20;2.10;;;;;;;;;;5046269;28;20116;-61
2023/12/19 13:33:12;;;;;;;2.88;2.67;;;;;;;;;;5046268;28;20393;-61
2023/12/19 13:35:42;;;;;;;2.50;2.35;;;;;;;;;;5041115;28;20033;-61
2023/12/19 13:38:08;;;;;;;2.53;2.33;;;;;;;;;;5041989;28;20075;-61
2023/12/19 13:40:36;;;;;;;2.20;2.03;;;;;;;;;;5043999;28;20041;-60
2023/12/19 13:43:02;;;;;;;1.55;1.45;;;;;;;;;;5047717;28;20045;-60
2023/12/19 13:45:30;;;;;;;1.65;1.55;;;;;;;;;;5045114;28;20037;-61
2023/12/19 13:47:58;;;;;;;1.75;1.65;;;;;;;;;;5046390;28;20037;-61
2023/12/19 13:50:24;;;;;;;1.70;1.60;;;;;;;;;;5045376;28;21393;-61
2023/12/19 13:52:51;;;;;;;1.80;1.70;;;;;;;;;;5044383;28;20075;-61
2023/12/19 13:55:17;;;;;;;2.15;1.95;;;;;;;;;;5047970;28;20041;-60
2023/12/19 13:57:43;;;;;;;1.60;1.30;;;;;;;;;;5045223;28;20094;-60
2023/12/19 14:00:14;;;;;;;2.47;1.80;;;;;;;;;;5046513;28;20060;-60
2023/12/19 14:02:40;;;;;;;1.65;1.50;;;;;;;;;;5047627;28;20091;-58
2023/12/19 14:05:06;;;;;;;1.30;1.20;;;;;;;;;;5046763;28;20237;-58
2023/12/19 14:07:33;;;;;;;1.33;1.10;;;;;;;;;;5046543;28;20044;-59
2023/12/19 14:10:00;;;;;;;1.30;1.20;;;;;;;;;;5047603;28;20041;-59
2023/12/19 14:12:26;;;;;;;0.85;0.77;;;;;;;;;;5047947;28;20374;-59
2023/12/19 14:14:53;;;;;;;0.93;0.85;;;;;;;;;;5044938;28;20040;-59
2023/12/19 14:17:19;;;;;;;0.82;0.80;;;;;;;;;;5047958;28;20041;-58
2023/12/19 14:19:45;;;;;;;0.80;0.80;;;;;;;;;;5046554;28;20386;-58
2023/12/19 14:22:11;;;;;;;0.68;0.68;;;;;;;;;;5047038;28;20515;-58
2023/12/19 14:24:39;;;;;;;0.75;0.65;;;;;;;;;;5046867;28;20555;-58
2023/12/19 14:27:05;;;;;;;1.30;0.55;;;;;;;;;;5043482;28;20123;-59
2023/12/19 14:29:34;;;;;;;0.88;0.52;;;;;;;;;;5047167;28;20159;-58
2023/12/19 14:32:00;;;;;;;0.73;0.73;;;;;;;;;;5045425;28;20040;-58
2023/12/19 14:34:26;;;;;;;0.70;0.60;;;;;;;;;;5044672;28;20049;-59